createdAt,value
2022-09-15T00:00:17.146Z,18.90
2022-09-15T00:00:51.174Z,18.90
2022-09-15T00:01:23.294Z,18.90
2022-09-15T00:01:55.136Z,18.90
2022-09-15T00:02:28.098Z,18.90
2022-09-15T00:03:00.643Z,18.90
2022-09-15T00:03:32.692Z,18.90
2022-09-15T00:04:06.807Z,18.90
2022-09-15T00:04:38.617Z,18.90
2022-09-15T00:05:10.868Z,18.90
2022-09-15T00:05:42.693Z,18.90
2022-09-15T00:06:15.794Z,18.90
2022-09-15T00:06:47.589Z,18.90
2022-09-15T00:07:20.411Z,18.90
2022-09-15T00:07:54.650Z,19.00
2022-09-15T00:08:26.689Z,18.90
2022-09-15T00:08:59.819Z,18.90
2022-09-15T00:09:31.801Z,18.90
2022-09-15T00:10:04.929Z,18.90
2022-09-15T00:10:37.670Z,18.90
2022-09-15T00:11:12.625Z,18.90
2022-09-15T00:11:45.537Z,18.90
2022-09-15T00:12:17.750Z,18.90
2022-09-15T00:12:49.531Z,18.90
2022-09-15T00:13:23.599Z,18.90
2022-09-15T00:13:57.350Z,18.80
2022-09-15T00:14:29.157Z,18.90
2022-09-15T00:15:01.950Z,18.90
2022-09-15T00:15:35.234Z,18.90
2022-09-15T00:16:08.442Z,18.90
2022-09-15T00:16:41.296Z,18.90
2022-09-15T00:17:13.220Z,18.90
2022-09-15T00:17:49.663Z,18.90
2022-09-15T00:18:21.678Z,18.90
2022-09-15T00:18:54.551Z,18.90
2022-09-15T00:19:26.402Z,18.80
2022-09-15T00:19:58.584Z,18.80
2022-09-15T00:20:31.358Z,18.80
2022-09-15T00:21:06.247Z,18.80
2022-09-15T00:21:42.474Z,18.80
2022-09-15T00:22:14.307Z,18.80
2022-09-15T00:22:46.566Z,18.80
2022-09-15T00:23:20.641Z,18.80
2022-09-15T00:23:52.688Z,18.80
2022-09-15T00:24:24.449Z,18.80
2022-09-15T00:24:57.205Z,18.80
2022-09-15T00:25:28.994Z,18.80
2022-09-15T00:26:00.851Z,19.00
2022-09-15T00:26:33.624Z,18.90
2022-09-15T00:27:05.493Z,18.90
2022-09-15T00:27:37.325Z,18.90
2022-09-15T00:28:10.062Z,18.90
2022-09-15T00:28:42.338Z,18.90
2022-09-15T00:29:14.116Z,18.90
2022-09-15T00:29:46.857Z,19.00
2022-09-15T00:30:18.826Z,18.90
2022-09-15T00:30:52.625Z,18.90
2022-09-15T00:31:26.449Z,18.90
2022-09-15T00:31:59.329Z,18.90
2022-09-15T00:32:31.427Z,18.90
2022-09-15T00:33:03.379Z,18.90
2022-09-15T00:33:35.916Z,18.90
2022-09-15T00:34:08.711Z,18.90
2022-09-15T00:34:40.515Z,18.90
2022-09-15T00:35:12.324Z,18.80
2022-09-15T00:35:47.064Z,18.90
2022-09-15T00:36:20.601Z,18.90
2022-09-15T00:36:52.441Z,18.90
2022-09-15T00:37:25.199Z,18.80
2022-09-15T00:37:56.978Z,18.90
2022-09-15T00:38:30.531Z,18.90
2022-09-15T00:39:03.316Z,18.90
2022-09-15T00:39:35.179Z,18.90
2022-09-15T00:40:07.723Z,18.80
2022-09-15T00:40:44.892Z,18.80
2022-09-15T00:41:20.290Z,18.80
2022-09-15T00:41:52.133Z,18.90
2022-09-15T00:42:24.074Z,18.80
2022-09-15T00:42:56.874Z,18.80
2022-09-15T00:43:44.446Z,18.80
2022-09-15T00:44:49.082Z,18.80
2022-09-15T00:45:20.974Z,18.80
2022-09-15T00:45:52.868Z,18.90
2022-09-15T00:46:30.041Z,18.80
2022-09-15T00:47:18.788Z,18.80
2022-09-15T00:47:53.089Z,18.80
2022-09-15T00:48:24.988Z,18.80
2022-09-15T00:49:01.764Z,18.80
2022-09-15T00:49:36.468Z,18.70
2022-09-15T00:50:12.342Z,18.80
2022-09-15T00:50:46.948Z,18.80
2022-09-15T00:51:23.010Z,18.80
2022-09-15T00:52:00.321Z,18.80
2022-09-15T00:52:37.429Z,18.80
2022-09-15T00:53:11.590Z,18.80
2022-09-15T00:53:49.128Z,18.80
2022-09-15T00:54:35.435Z,18.80
2022-09-15T00:55:12.185Z,18.80
2022-09-15T00:55:47.454Z,18.80
2022-09-15T00:56:20.898Z,18.80
2022-09-15T00:56:57.469Z,18.80
2022-09-15T00:57:33.665Z,18.80
2022-09-15T00:58:08.669Z,18.80
2022-09-15T00:58:45.473Z,18.80
2022-09-15T00:59:21.370Z,18.80
2022-09-15T00:59:56.656Z,18.80
2022-09-15T01:00:28.844Z,18.70
2022-09-15T01:01:03.879Z,18.60
2022-09-15T01:01:36.852Z,18.70
2022-09-15T01:02:13.267Z,18.70
2022-09-15T01:02:47.228Z,18.70
2022-09-15T01:03:20.273Z,18.70
2022-09-15T01:03:52.562Z,18.70
2022-09-15T01:04:24.602Z,18.70
2022-09-15T01:04:59.275Z,18.70
2022-09-15T01:05:34.030Z,18.70
2022-09-15T01:06:09.478Z,18.70
2022-09-15T01:06:47.550Z,18.70
2022-09-15T01:07:26.284Z,18.70
2022-09-15T01:08:01.839Z,18.70
2022-09-15T01:08:37.988Z,18.70
2022-09-15T01:09:19.003Z,18.70
2022-09-15T01:09:54.077Z,18.70
2022-09-15T01:10:28.050Z,18.60
2022-09-15T01:11:02.502Z,18.60
2022-09-15T01:11:34.896Z,18.60
2022-09-15T01:12:07.176Z,18.60
2022-09-15T01:12:41.477Z,18.60
2022-09-15T01:13:14.661Z,18.60
2022-09-15T01:13:47.394Z,18.60
2022-09-15T01:14:19.202Z,18.60
2022-09-15T01:14:51.072Z,18.60
2022-09-15T01:15:24.836Z,18.60
2022-09-15T01:16:04.755Z,18.60
2022-09-15T01:16:46.992Z,18.60
2022-09-15T01:17:30.658Z,18.60
2022-09-15T01:18:11.056Z,18.60
2022-09-15T01:18:50.627Z,18.60
2022-09-15T01:20:21.472Z,18.60
2022-09-15T01:21:04.161Z,18.50
2022-09-15T01:21:42.707Z,18.50
2022-09-15T01:22:28.849Z,18.50
2022-09-15T01:23:17.286Z,18.50
2022-09-15T01:24:21.876Z,18.50
2022-09-15T01:25:06.100Z,18.50
2022-09-15T01:25:55.064Z,18.40
2022-09-15T01:27:18.721Z,18.40
2022-09-15T01:28:30.274Z,18.40
2022-09-15T01:29:39.646Z,18.50
2022-09-15T01:30:15.263Z,18.40
2022-09-15T01:30:53.162Z,18.40
2022-09-15T01:31:30.345Z,18.40
2022-09-15T01:32:40.580Z,18.40
2022-09-15T01:33:21.505Z,18.50
2022-09-15T01:34:02.065Z,18.50
2022-09-15T01:34:41.067Z,18.50
2022-09-15T01:35:26.229Z,18.50
2022-09-15T01:36:05.916Z,18.50
2022-09-15T01:36:45.069Z,18.50
2022-09-15T01:37:24.173Z,18.50
2022-09-15T01:38:00.869Z,18.50
2022-09-15T01:38:50.316Z,18.50
2022-09-15T01:39:27.769Z,18.50
2022-09-15T01:40:01.894Z,18.50
2022-09-15T01:40:39.441Z,18.50
2022-09-15T01:41:17.295Z,18.50
2022-09-15T01:41:51.933Z,18.50
2022-09-15T01:42:24.991Z,18.50
2022-09-15T01:42:58.029Z,18.60
2022-09-15T01:43:33.471Z,18.60
2022-09-15T01:44:08.957Z,18.60
2022-09-15T01:44:45.601Z,18.60
2022-09-15T01:45:21.988Z,18.60
2022-09-15T01:45:54.883Z,18.60
2022-09-15T01:46:31.349Z,18.60
2022-09-15T01:47:07.901Z,18.60
2022-09-15T01:47:42.376Z,18.60
2022-09-15T01:48:15.341Z,18.60
2022-09-15T01:48:49.332Z,18.60
2022-09-15T01:49:30.837Z,18.60
2022-09-15T01:50:08.451Z,18.60
2022-09-15T01:50:47.859Z,18.50
2022-09-15T01:51:21.339Z,18.50
2022-09-15T01:51:54.729Z,18.50
2022-09-15T01:52:28.978Z,18.50
2022-09-15T01:53:04.188Z,18.50
2022-09-15T01:53:37.356Z,18.50
2022-09-15T01:54:10.457Z,18.80
2022-09-15T01:54:48.722Z,18.50
2022-09-15T01:55:26.401Z,18.60
2022-09-15T01:56:02.671Z,18.60
2022-09-15T01:56:37.722Z,18.60
2022-09-15T01:57:09.695Z,18.60
2022-09-15T01:57:41.639Z,18.60
2022-09-15T01:58:13.518Z,18.60
2022-09-15T01:58:46.611Z,18.60
2022-09-15T01:59:18.415Z,18.60
2022-09-15T01:59:51.906Z,18.60
2022-09-15T02:00:26.004Z,18.60
2022-09-15T02:01:02.026Z,18.60
2022-09-15T02:01:43.126Z,18.60
2022-09-15T02:02:18.846Z,18.60
2022-09-15T02:02:55.837Z,18.60
2022-09-15T02:03:35.062Z,18.60
2022-09-15T02:04:12.319Z,18.60
2022-09-15T02:04:49.978Z,18.60
2022-09-15T02:05:30.066Z,18.60
2022-09-15T02:06:07.129Z,18.60
2022-09-15T02:06:49.534Z,18.60
2022-09-15T02:07:31.156Z,18.60
2022-09-15T02:08:08.817Z,18.60
2022-09-15T02:08:45.725Z,18.60
2022-09-15T02:09:22.949Z,18.60
2022-09-15T02:10:01.806Z,18.60
2022-09-15T02:10:42.028Z,18.70
2022-09-15T02:11:17.011Z,18.70
2022-09-15T02:11:59.398Z,18.70
2022-09-15T02:12:35.145Z,18.70
2022-09-15T02:13:16.901Z,18.70
2022-09-15T02:13:57.432Z,18.70
2022-09-15T02:14:43.392Z,18.70
2022-09-15T02:15:21.050Z,18.80
2022-09-15T02:15:58.608Z,18.80
2022-09-15T02:16:34.889Z,18.80
2022-09-15T02:17:11.897Z,18.80
2022-09-15T02:17:50.417Z,18.80
2022-09-15T02:18:30.422Z,18.80
2022-09-15T02:19:23.236Z,18.80
2022-09-15T02:20:02.623Z,18.80
2022-09-15T02:20:42.685Z,18.90
2022-09-15T02:21:18.958Z,18.80
2022-09-15T02:22:00.996Z,18.80
2022-09-15T02:22:37.735Z,18.80
2022-09-15T02:23:17.071Z,18.80
2022-09-15T02:23:54.060Z,18.80
2022-09-15T02:24:30.948Z,18.80
2022-09-15T02:25:07.043Z,18.90
2022-09-15T02:25:43.318Z,18.90
2022-09-15T02:26:19.803Z,18.90
2022-09-15T02:26:55.099Z,18.90
2022-09-15T02:27:31.573Z,18.90
2022-09-15T02:28:07.485Z,18.90
2022-09-15T02:28:41.593Z,18.90
2022-09-15T02:29:19.547Z,18.80
2022-09-15T02:29:56.012Z,18.80
2022-09-15T02:30:31.634Z,18.80
2022-09-15T02:31:08.910Z,18.80
2022-09-15T02:31:42.592Z,18.80
2022-09-15T02:32:18.186Z,18.80
2022-09-15T02:32:56.009Z,18.80
2022-09-15T02:33:33.308Z,18.80
2022-09-15T02:34:11.093Z,18.80
2022-09-15T02:34:46.753Z,18.80
2022-09-15T02:35:19.241Z,18.80
2022-09-15T02:35:53.174Z,18.80
2022-09-15T02:36:28.821Z,18.80
2022-09-15T02:37:04.682Z,18.80
2022-09-15T02:37:37.369Z,18.80
2022-09-15T02:38:10.728Z,18.80
2022-09-15T02:38:47.957Z,18.80
2022-09-15T02:39:23.393Z,18.80
2022-09-15T02:39:57.968Z,18.80
2022-09-15T02:40:32.145Z,18.80
2022-09-15T02:41:05.140Z,18.80
2022-09-15T02:41:37.344Z,18.80
2022-09-15T02:42:11.130Z,18.80
2022-09-15T02:42:52.251Z,18.80
2022-09-15T02:43:24.009Z,18.80
2022-09-15T02:43:56.781Z,18.80
2022-09-15T02:44:30.563Z,18.70
2022-09-15T02:45:02.774Z,18.90
2022-09-15T02:45:36.103Z,18.80
2022-09-15T02:46:09.441Z,18.80
2022-09-15T02:46:41.903Z,18.80
2022-09-15T02:47:14.696Z,18.80
2022-09-15T02:47:46.486Z,18.80
2022-09-15T02:48:18.776Z,18.80
2022-09-15T02:48:51.519Z,18.80
2022-09-15T02:49:23.387Z,18.80
2022-09-15T02:49:55.487Z,18.80
2022-09-15T02:50:28.605Z,18.80
2022-09-15T02:51:00.361Z,18.80
2022-09-15T02:51:32.182Z,18.80
2022-09-15T02:52:04.957Z,18.70
2022-09-15T02:52:37.245Z,18.80
2022-09-15T02:53:09.084Z,18.80
2022-09-15T02:53:43.280Z,18.80
2022-09-15T02:54:15.198Z,18.80
2022-09-15T02:54:47.240Z,18.80
2022-09-15T02:55:20.049Z,18.80
2022-09-15T02:55:51.882Z,18.80
2022-09-15T02:56:23.683Z,18.80
2022-09-15T02:56:56.441Z,18.80
2022-09-15T02:57:28.206Z,18.80
2022-09-15T02:58:00.492Z,18.80
2022-09-15T02:58:32.541Z,18.70
2022-09-15T02:59:05.452Z,18.70
2022-09-15T02:59:55.843Z,18.70
2022-09-15T03:00:28.266Z,18.70
2022-09-15T03:01:04.189Z,18.70
2022-09-15T03:01:38.867Z,18.70
2022-09-15T03:02:11.983Z,18.70
2022-09-15T03:02:47.040Z,18.80
2022-09-15T03:03:21.896Z,18.70
2022-09-15T03:03:53.698Z,18.70
2022-09-15T03:04:26.550Z,18.70
2022-09-15T03:04:58.339Z,18.70
2022-09-15T03:05:30.861Z,18.70
2022-09-15T03:06:16.339Z,18.70
2022-09-15T03:06:49.149Z,18.60
2022-09-15T03:07:21.565Z,18.60
2022-09-15T03:07:54.013Z,18.60
2022-09-15T03:08:28.048Z,18.60
2022-09-15T03:09:01.474Z,18.60
2022-09-15T03:09:34.064Z,18.60
2022-09-15T03:10:07.708Z,18.60
2022-09-15T03:10:40.477Z,18.60
2022-09-15T03:11:12.276Z,18.60
2022-09-15T03:11:44.051Z,18.60
2022-09-15T03:12:17.617Z,18.60
2022-09-15T03:12:51.214Z,18.60
2022-09-15T03:13:23.229Z,18.60
2022-09-15T03:13:57.365Z,18.70
2022-09-15T03:14:29.630Z,18.60
2022-09-15T03:15:01.469Z,18.60
2022-09-15T03:15:34.224Z,18.60
2022-09-15T03:16:10.267Z,18.50
2022-09-15T03:16:43.491Z,18.50
2022-09-15T03:17:15.330Z,18.50
2022-09-15T03:17:49.538Z,18.50
2022-09-15T03:18:21.341Z,18.50
2022-09-15T03:18:54.679Z,18.60
2022-09-15T03:19:27.684Z,18.50
2022-09-15T03:20:00.429Z,18.50
2022-09-15T03:20:32.236Z,18.50
2022-09-15T03:21:06.367Z,18.50
2022-09-15T03:21:38.312Z,18.50
2022-09-15T03:22:10.406Z,18.50
2022-09-15T03:22:43.790Z,18.50
2022-09-15T03:23:15.555Z,18.50
2022-09-15T03:23:47.449Z,18.60
2022-09-15T03:24:20.542Z,18.60
2022-09-15T03:24:52.336Z,18.60
2022-09-15T03:25:26.744Z,18.60
2022-09-15T03:25:59.789Z,18.60
2022-09-15T03:26:31.657Z,18.60
2022-09-15T03:27:03.911Z,18.50
2022-09-15T03:27:37.273Z,18.50
2022-09-15T03:28:09.024Z,18.50
2022-09-15T03:28:41.312Z,18.50
2022-09-15T03:29:14.710Z,18.50
2022-09-15T03:29:46.497Z,18.50
2022-09-15T03:30:18.788Z,18.50
2022-09-15T03:30:50.571Z,18.50
2022-09-15T03:31:23.369Z,18.50
2022-09-15T03:31:56.676Z,18.50
2022-09-15T03:32:28.713Z,18.50
2022-09-15T03:33:01.517Z,18.50
2022-09-15T03:33:33.358Z,18.50
2022-09-15T03:34:05.186Z,18.50
2022-09-15T03:34:37.929Z,18.40
2022-09-15T03:35:09.972Z,18.40
2022-09-15T03:35:41.872Z,18.40
2022-09-15T03:36:14.633Z,18.40
2022-09-15T03:36:46.530Z,18.40
2022-09-15T03:37:18.604Z,18.50
2022-09-15T03:37:50.426Z,18.50
2022-09-15T03:38:24.612Z,18.50
2022-09-15T03:38:57.924Z,18.50
2022-09-15T03:39:29.713Z,18.50
2022-09-15T03:40:03.633Z,18.50
2022-09-15T03:40:37.660Z,18.50
2022-09-15T03:41:11.923Z,18.50
2022-09-15T03:41:44.675Z,18.50
2022-09-15T03:42:16.493Z,18.50
2022-09-15T03:42:48.276Z,18.50
2022-09-15T03:43:21.021Z,18.50
2022-09-15T03:43:52.863Z,18.50
2022-09-15T03:44:24.830Z,18.50
2022-09-15T03:44:57.582Z,18.50
2022-09-15T03:45:29.508Z,18.50
2022-09-15T03:46:02.208Z,18.50
2022-09-15T03:46:35.564Z,18.50
2022-09-15T03:47:08.656Z,18.50
2022-09-15T03:47:40.422Z,18.60
2022-09-15T03:48:13.170Z,18.60
2022-09-15T03:48:45.039Z,18.60
2022-09-15T03:49:16.867Z,18.60
2022-09-15T03:49:49.626Z,18.60
2022-09-15T03:50:21.504Z,18.60
2022-09-15T03:50:53.525Z,18.60
2022-09-15T03:51:26.282Z,18.60
2022-09-15T03:51:58.649Z,18.70
2022-09-15T03:52:31.833Z,18.70
2022-09-15T03:53:04.855Z,18.70
2022-09-15T03:53:38.976Z,18.60
2022-09-15T03:54:12.158Z,18.70
2022-09-15T03:54:44.935Z,18.70
2022-09-15T03:55:16.930Z,18.70
2022-09-15T03:55:48.831Z,18.70
2022-09-15T03:56:25.228Z,18.70
2022-09-15T03:56:57.017Z,18.70
2022-09-15T03:57:28.804Z,18.70
2022-09-15T03:58:01.527Z,18.70
2022-09-15T03:58:33.288Z,18.70
2022-09-15T03:59:06.720Z,18.70
2022-09-15T03:59:38.532Z,18.70
2022-09-15T04:00:11.641Z,18.70
2022-09-15T04:00:45.667Z,18.70
2022-09-15T04:01:18.907Z,18.70
2022-09-15T04:01:51.004Z,18.70
2022-09-15T04:02:25.439Z,18.70
2022-09-15T04:02:57.298Z,18.60
2022-09-15T04:03:30.925Z,18.60
2022-09-15T04:04:03.024Z,18.60
2022-09-15T04:04:34.817Z,18.60
2022-09-15T04:05:08.672Z,18.60
2022-09-15T04:05:42.012Z,18.70
2022-09-15T04:06:15.017Z,18.70
2022-09-15T04:06:47.801Z,18.70
2022-09-15T04:07:19.632Z,18.70
2022-09-15T04:07:51.414Z,18.70
2022-09-15T04:08:24.198Z,18.70
2022-09-15T04:08:56.016Z,18.70
2022-09-15T04:09:28.311Z,18.70
2022-09-15T04:10:01.135Z,18.70
2022-09-15T04:10:33.198Z,18.70
2022-09-15T04:11:05.793Z,18.70
2022-09-15T04:11:39.417Z,18.70
2022-09-15T04:12:11.538Z,18.70
2022-09-15T04:12:44.236Z,18.70
2022-09-15T04:13:16.982Z,18.70
2022-09-15T04:13:49.224Z,18.70
2022-09-15T04:14:20.994Z,18.70
2022-09-15T04:14:53.934Z,18.70
2022-09-15T04:15:26.704Z,18.70
2022-09-15T04:16:00.118Z,18.70
2022-09-15T04:16:31.998Z,18.70
2022-09-15T04:17:05.019Z,18.70
2022-09-15T04:17:38.165Z,18.70
2022-09-15T04:18:10.625Z,18.70
2022-09-15T04:18:43.576Z,18.70
2022-09-15T04:19:15.393Z,18.70
2022-09-15T04:19:47.153Z,18.70
2022-09-15T04:20:19.979Z,18.70
2022-09-15T04:20:51.789Z,18.70
2022-09-15T04:21:26.597Z,18.70
2022-09-15T04:21:59.336Z,18.60
2022-09-15T04:22:31.223Z,18.50
2022-09-15T04:23:03.013Z,18.60
2022-09-15T04:23:36.403Z,18.70
2022-09-15T04:24:08.472Z,18.70
2022-09-15T04:24:40.261Z,18.70
2022-09-15T04:25:12.158Z,18.70
2022-09-15T04:25:45.011Z,18.70
2022-09-15T04:26:21.756Z,18.70
2022-09-15T04:26:53.634Z,18.70
2022-09-15T04:27:26.455Z,18.70
2022-09-15T04:27:58.305Z,18.70
2022-09-15T04:28:33.705Z,18.70
2022-09-15T04:29:11.944Z,18.50
2022-09-15T04:29:44.040Z,18.70
2022-09-15T04:30:15.832Z,18.70
2022-09-15T04:30:48.585Z,18.70
2022-09-15T04:31:20.591Z,18.70
2022-09-15T04:31:52.953Z,18.70
2022-09-15T04:32:25.741Z,18.70
2022-09-15T04:32:58.894Z,18.70
2022-09-15T04:33:30.649Z,18.70
2022-09-15T04:34:03.477Z,18.70
2022-09-15T04:34:39.313Z,18.70
2022-09-15T04:35:13.094Z,18.70
2022-09-15T04:35:45.897Z,18.70
2022-09-15T04:36:20.996Z,18.70
2022-09-15T04:36:52.762Z,18.70
2022-09-15T04:37:25.573Z,18.70
2022-09-15T04:37:57.432Z,18.70
2022-09-15T04:38:29.506Z,18.70
2022-09-15T04:39:02.462Z,18.70
2022-09-15T04:39:34.310Z,18.70
2022-09-15T04:40:07.248Z,18.70
2022-09-15T04:40:39.994Z,18.70
2022-09-15T04:41:12.875Z,18.70
2022-09-15T04:41:44.640Z,18.70
2022-09-15T04:42:17.488Z,18.80
2022-09-15T04:42:49.283Z,18.70
2022-09-15T04:43:21.060Z,18.80
2022-09-15T04:43:54.156Z,18.80
2022-09-15T04:44:25.948Z,18.70
2022-09-15T04:44:58.034Z,18.80
2022-09-15T04:45:30.816Z,18.80
2022-09-15T04:46:02.703Z,18.80
2022-09-15T04:46:34.597Z,18.80
2022-09-15T04:47:07.288Z,18.70
2022-09-15T04:47:40.085Z,18.80
2022-09-15T04:48:13.217Z,18.80
2022-09-15T04:48:46.031Z,18.80
2022-09-15T04:49:18.082Z,18.80
2022-09-15T04:49:50.850Z,18.80
2022-09-15T04:50:22.633Z,18.80
2022-09-15T04:50:54.669Z,18.80
2022-09-15T04:51:28.122Z,18.80
2022-09-15T04:52:00.028Z,18.80
2022-09-15T04:52:31.986Z,18.80
2022-09-15T04:53:04.796Z,18.80
2022-09-15T04:53:37.075Z,18.70
2022-09-15T04:54:08.883Z,18.70
2022-09-15T04:54:41.634Z,18.70
2022-09-15T04:55:13.481Z,18.70
2022-09-15T04:55:45.407Z,18.70
2022-09-15T04:56:20.219Z,18.70
2022-09-15T04:56:52.028Z,18.70
2022-09-15T04:57:23.888Z,18.70
2022-09-15T04:57:56.646Z,18.80
2022-09-15T04:58:28.421Z,18.80
2022-09-15T04:59:03.848Z,18.80
2022-09-15T04:59:37.197Z,18.70
2022-09-15T05:00:10.661Z,18.80
2022-09-15T05:00:43.528Z,18.80
2022-09-15T05:01:18.155Z,18.80
2022-09-15T05:01:53.294Z,18.80
2022-09-15T05:02:26.169Z,18.80
2022-09-15T05:02:58.796Z,18.80
2022-09-15T05:03:34.861Z,18.80
2022-09-15T05:04:07.609Z,18.80
2022-09-15T05:04:39.411Z,18.80
2022-09-15T05:05:11.221Z,18.80
2022-09-15T05:05:43.947Z,18.80
2022-09-15T05:06:18.225Z,18.80
2022-09-15T05:06:50.186Z,18.80
2022-09-15T05:07:22.930Z,18.80
2022-09-15T05:07:54.702Z,18.80
2022-09-15T05:08:26.458Z,18.80
2022-09-15T05:08:58.942Z,18.80
2022-09-15T05:09:31.746Z,18.90
2022-09-15T05:10:03.944Z,18.80
2022-09-15T05:10:35.728Z,18.80
2022-09-15T05:11:12.545Z,18.80
2022-09-15T05:11:44.316Z,18.80
2022-09-15T05:12:17.352Z,18.80
2022-09-15T05:12:49.142Z,18.80
2022-09-15T05:13:20.932Z,18.80
2022-09-15T05:13:54.159Z,18.80
2022-09-15T05:14:26.479Z,18.80
2022-09-15T05:14:58.292Z,18.80
2022-09-15T05:15:31.019Z,18.80
2022-09-15T05:16:07.644Z,18.80
2022-09-15T05:16:40.124Z,18.80
2022-09-15T05:17:12.989Z,18.80
2022-09-15T05:17:44.761Z,18.80
2022-09-15T05:18:16.510Z,18.80
2022-09-15T05:18:51.916Z,18.90
2022-09-15T05:19:23.805Z,18.80
2022-09-15T05:19:55.555Z,18.80
2022-09-15T05:20:29.713Z,18.80
2022-09-15T05:21:03.182Z,18.80
2022-09-15T05:21:35.002Z,18.80
2022-09-15T05:22:07.715Z,18.90
2022-09-15T05:22:41.827Z,18.90
2022-09-15T05:23:13.958Z,18.90
2022-09-15T05:23:46.339Z,18.90
2022-09-15T05:24:19.113Z,18.80
2022-09-15T05:24:50.918Z,18.80
2022-09-15T05:25:22.682Z,18.80
2022-09-15T05:25:55.478Z,18.80
2022-09-15T05:26:29.999Z,18.80
2022-09-15T05:27:01.890Z,18.80
2022-09-15T05:27:33.813Z,18.80
2022-09-15T05:28:07.644Z,18.80
2022-09-15T05:28:39.718Z,18.80
2022-09-15T05:29:12.501Z,18.80
2022-09-15T05:29:44.266Z,18.80
2022-09-15T05:30:36.735Z,18.90
2022-09-15T05:31:12.491Z,18.80
2022-09-15T05:31:44.316Z,18.80
2022-09-15T05:32:16.155Z,18.80
2022-09-15T05:32:48.873Z,18.80
2022-09-15T05:33:22.324Z,18.80
2022-09-15T05:33:56.472Z,18.80
2022-09-15T05:34:28.272Z,18.80
2022-09-15T05:35:00.084Z,18.80
2022-09-15T05:35:32.841Z,18.80
2022-09-15T05:36:05.428Z,18.80
2022-09-15T05:36:37.230Z,18.80
2022-09-15T05:37:10.378Z,18.80
2022-09-15T05:37:42.146Z,18.80
2022-09-15T05:38:13.884Z,18.80
2022-09-15T05:38:46.664Z,18.80
2022-09-15T05:39:18.564Z,18.80
2022-09-15T05:39:50.363Z,18.80
2022-09-15T05:40:23.153Z,18.80
2022-09-15T05:40:55.799Z,18.80
2022-09-15T05:41:28.705Z,18.80
2022-09-15T05:42:01.417Z,18.80
2022-09-15T05:42:33.246Z,18.90
2022-09-15T05:43:05.000Z,18.80
2022-09-15T05:43:39.396Z,18.80
2022-09-15T05:44:11.261Z,18.90
2022-09-15T05:44:43.992Z,18.80
2022-09-15T05:45:16.312Z,18.90
2022-09-15T05:45:54.755Z,18.80
2022-09-15T05:46:29.082Z,18.90
2022-09-15T05:47:01.626Z,18.90
2022-09-15T05:47:33.481Z,18.80
2022-09-15T05:48:06.422Z,18.80
2022-09-15T05:48:38.409Z,18.80
2022-09-15T05:49:12.589Z,18.90
2022-09-15T05:49:44.356Z,18.80
2022-09-15T05:50:16.335Z,19.00
2022-09-15T05:50:49.706Z,18.80
2022-09-15T05:51:22.853Z,18.80
2022-09-15T05:51:54.759Z,18.80
2022-09-15T05:52:26.558Z,18.90
2022-09-15T05:52:59.653Z,18.80
2022-09-15T05:53:32.978Z,18.80
2022-09-15T05:54:05.289Z,18.90
2022-09-15T05:54:38.010Z,18.90
2022-09-15T05:55:10.081Z,18.90
2022-09-15T05:55:42.338Z,18.90
2022-09-15T05:56:16.877Z,18.90
2022-09-15T05:56:48.706Z,18.90
2022-09-15T05:57:20.500Z,18.90
2022-09-15T05:57:53.625Z,18.80
2022-09-15T05:58:26.017Z,18.80
2022-09-15T05:58:57.809Z,18.80
2022-09-15T05:59:30.614Z,18.80
2022-09-15T06:00:04.274Z,18.80
2022-09-15T06:00:36.574Z,18.80
2022-09-15T06:01:11.862Z,18.80
2022-09-15T06:01:43.662Z,18.80
2022-09-15T06:02:16.567Z,18.80
2022-09-15T06:02:48.415Z,18.80
2022-09-15T06:03:20.950Z,18.80
2022-09-15T06:03:54.413Z,18.90
2022-09-15T06:04:27.546Z,18.80
2022-09-15T06:04:59.337Z,18.90
2022-09-15T06:05:32.108Z,18.90
2022-09-15T06:06:05.620Z,18.90
2022-09-15T06:06:38.377Z,18.90
2022-09-15T06:07:10.171Z,18.90
2022-09-15T06:07:42.042Z,18.90
2022-09-15T06:08:18.477Z,18.90
2022-09-15T06:08:57.499Z,18.90
2022-09-15T06:09:30.056Z,18.90
2022-09-15T06:10:01.848Z,18.90
2022-09-15T06:10:34.613Z,18.90
2022-09-15T06:11:08.241Z,18.80
2022-09-15T06:11:40.090Z,18.90
2022-09-15T06:12:12.854Z,18.90
2022-09-15T06:12:44.629Z,18.90
2022-09-15T06:13:16.454Z,18.90
2022-09-15T06:13:49.943Z,18.90
2022-09-15T06:14:21.723Z,18.90
2022-09-15T06:14:53.731Z,18.80
2022-09-15T06:15:26.839Z,18.90
2022-09-15T06:16:03.159Z,18.90
2022-09-15T06:16:36.638Z,18.90
2022-09-15T06:17:08.514Z,18.90
2022-09-15T06:17:40.377Z,18.90
2022-09-15T06:18:12.174Z,19.00
2022-09-15T06:18:44.941Z,19.00
2022-09-15T06:19:16.851Z,18.90
2022-09-15T06:19:51.012Z,18.90
2022-09-15T06:20:22.800Z,19.00
2022-09-15T06:20:54.549Z,19.10
2022-09-15T06:21:29.038Z,19.00
2022-09-15T06:22:00.853Z,19.00
2022-09-15T06:22:32.946Z,19.00
2022-09-15T06:23:05.710Z,19.00
2022-09-15T06:23:38.036Z,19.00
2022-09-15T06:24:13.022Z,19.00
2022-09-15T06:24:44.770Z,19.00
2022-09-15T06:25:16.770Z,18.90
2022-09-15T06:25:48.583Z,19.00
2022-09-15T06:26:22.062Z,18.90
2022-09-15T06:26:53.884Z,19.00
2022-09-15T06:27:25.800Z,19.00
2022-09-15T06:27:58.592Z,19.00
2022-09-15T06:28:30.488Z,19.00
2022-09-15T06:29:04.979Z,19.00
2022-09-15T06:29:37.721Z,19.00
2022-09-15T06:30:10.597Z,19.00
2022-09-15T06:30:42.870Z,19.00
2022-09-15T06:31:16.382Z,19.00
2022-09-15T06:31:48.234Z,19.00
2022-09-15T06:32:20.032Z,19.00
2022-09-15T06:32:52.757Z,19.00
2022-09-15T06:33:24.523Z,18.90
2022-09-15T06:33:57.627Z,18.90
2022-09-15T06:34:32.562Z,19.00
2022-09-15T06:35:07.027Z,19.00
2022-09-15T06:35:39.765Z,19.00
2022-09-15T06:36:12.252Z,19.00
2022-09-15T06:36:45.122Z,19.00
2022-09-15T06:37:16.930Z,19.00
2022-09-15T06:37:48.684Z,19.00
2022-09-15T06:38:21.432Z,19.00
2022-09-15T06:38:53.708Z,19.00
2022-09-15T06:39:26.684Z,19.00
2022-09-15T06:39:58.493Z,19.00
2022-09-15T06:40:30.544Z,19.00
2022-09-15T06:41:03.366Z,19.00
2022-09-15T06:42:00.823Z,19.00
2022-09-15T06:42:28.545Z,19.10
2022-09-15T06:43:00.283Z,19.20
2022-09-15T06:43:33.101Z,19.10
2022-09-15T06:44:05.834Z,19.10
2022-09-15T06:44:37.732Z,19.10
2022-09-15T06:45:10.305Z,19.10
2022-09-15T06:45:43.110Z,19.10
2022-09-15T06:46:16.679Z,19.00
2022-09-15T06:46:49.213Z,19.00
2022-09-15T06:47:21.984Z,19.00
2022-09-15T06:48:13.451Z,19.00
2022-09-15T06:48:48.488Z,19.00
2022-09-15T06:49:21.769Z,19.00
2022-09-15T06:49:55.639Z,19.00
2022-09-15T06:50:30.936Z,19.00
2022-09-15T06:51:05.624Z,19.00
2022-09-15T06:51:37.377Z,19.00
2022-09-15T06:52:10.170Z,19.00
2022-09-15T06:52:43.435Z,19.00
2022-09-15T06:53:15.217Z,19.00
2022-09-15T06:53:48.072Z,19.00
2022-09-15T06:54:19.877Z,19.20
2022-09-15T06:54:51.678Z,19.00
2022-09-15T06:55:24.623Z,19.00
2022-09-15T06:56:00.931Z,19.00
2022-09-15T06:56:37.850Z,19.00
2022-09-15T06:57:10.042Z,18.90
2022-09-15T06:57:41.804Z,18.90
2022-09-15T06:58:14.533Z,18.80
2022-09-15T06:58:48.814Z,18.80
2022-09-15T06:59:20.623Z,18.80
2022-09-15T06:59:53.637Z,18.80
2022-09-15T07:00:25.670Z,18.80
2022-09-15T07:01:01.449Z,18.70
2022-09-15T07:01:34.214Z,18.70
2022-09-15T07:02:06.244Z,18.70
2022-09-15T07:02:38.303Z,18.60
2022-09-15T07:03:11.420Z,18.70
2022-09-15T07:03:44.077Z,18.60
2022-09-15T07:04:15.904Z,18.60
2022-09-15T07:04:48.729Z,18.60
2022-09-15T07:05:20.529Z,18.60
2022-09-15T07:05:53.724Z,18.50
2022-09-15T07:06:29.626Z,18.50
2022-09-15T07:07:01.417Z,18.50
2022-09-15T07:07:33.174Z,18.40
2022-09-15T07:08:05.943Z,18.40
2022-09-15T07:08:38.181Z,18.40
2022-09-15T07:09:12.036Z,18.30
2022-09-15T07:09:48.331Z,18.40
2022-09-15T07:10:20.729Z,18.30
2022-09-15T07:10:54.850Z,18.30
2022-09-15T07:11:26.807Z,18.20
2022-09-15T07:11:59.620Z,18.20
2022-09-15T07:12:32.383Z,18.20
2022-09-15T07:13:05.153Z,18.20
2022-09-15T07:13:37.285Z,18.20
2022-09-15T07:14:09.221Z,18.10
2022-09-15T07:14:42.672Z,18.10
2022-09-15T07:15:14.521Z,18.10
2022-09-15T07:15:53.841Z,18.10
2022-09-15T07:16:27.213Z,18.10
2022-09-15T07:16:59.106Z,18.20
2022-09-15T07:17:31.871Z,18.20
2022-09-15T07:18:03.851Z,18.20
2022-09-15T07:18:39.683Z,18.20
2022-09-15T07:19:15.248Z,18.20
2022-09-15T07:19:47.017Z,18.20
2022-09-15T07:20:18.802Z,18.20
2022-09-15T07:20:52.393Z,18.20